Time;durP1;ratioP1;P1;durP2;ratioP2;P2;SDS_P1;SDS_P2;PMS_P1;PMS_P2;Temp;Humidity;BMP_temperature;BMP_pressure;BME280_temperature;BME280_humidity;BME280_pressure;Samples;Min_cycle;Max_cycle;Signal;HPM_P1;HPM_P2
2023/08/05 00:00:43;;;;;;;3.50;1.20;;;;;;;24.14;100.00;101299.83;103984;1270;60453;-51
2023/08/05 00:03:11;;;;;;;2.30;1.00;;;;;;;24.12;100.00;101297.77;104317;1263;59700;-51
2023/08/05 00:05:38;;;;;;;1.40;1.30;;;;;;;24.11;100.00;101294.41;104094;1267;74762;-51
2023/08/05 00:08:05;;;;;;;1.60;1.20;;;;;;;24.09;100.00;101292.13;104328;1267;67792;-50
2023/08/05 00:10:33;;;;;;;2.10;1.40;;;;;;;24.07;100.00;101293.77;104332;1269;73313;-49
2023/08/05 00:13:01;;;;;;;2.60;1.40;;;;;;;24.03;100.00;101291.53;104146;1264;59738;-51
2023/08/05 00:15:28;;;;;;;2.50;1.40;;;;;;;24.00;100.00;101285.95;104030;1264;59673;-51
2023/08/05 00:17:55;;;;;;;3.30;1.80;;;;;;;23.95;100.00;101279.97;104532;1260;73523;-51
2023/08/05 00:20:23;;;;;;;8.50;1.80;;;;;;;23.90;100.00;101271.54;104217;1257;66932;-51
2023/08/05 00:22:50;;;;;;;6.40;2.10;;;;;;;23.84;100.00;101270.31;104368;1256;72425;-51
2023/08/05 00:25:17;;;;;;;2.20;1.30;;;;;;;23.79;100.00;101262.52;104380;1257;60455;-51
2023/08/05 00:27:45;;;;;;;2.30;1.40;;;;;;;23.75;100.00;101258.26;104289;1267;59637;-52
2023/08/05 00:30:12;;;;;;;1.70;1.60;;;;;;;23.70;100.00;101248.70;104361;1257;73078;-51
2023/08/05 00:32:40;;;;;;;2.00;1.30;;;;;;;23.67;100.00;101246.77;104347;1263;66892;-50
2023/08/05 00:35:07;;;;;;;2.60;1.40;;;;;;;23.64;100.00;101243.77;108611;1257;72641;-51
2023/08/05 00:37:36;;;;;;;8.90;1.50;;;;;;;23.60;100.00;101240.23;108672;1257;61643;-52
2023/08/05 00:40:07;;;;;;;3.70;2.40;;;;;;;23.56;100.00;101235.80;108535;1257;58731;-52
2023/08/05 00:42:35;;;;;;;4.10;1.80;;;;;;;23.51;100.00;101231.73;108573;1257;71788;-51
2023/08/05 00:45:03;;;;;;;3.40;1.50;;;;;;;23.49;100.00;101225.54;106384;1257;69041;-50
2023/08/05 00:47:31;;;;;;;1.80;1.40;;;;;;;23.45;100.00;101222.65;106748;1257;72766;-49
2023/08/05 00:49:58;;;;;;;1.40;1.30;;;;;;;23.44;100.00;101220.02;104296;1257;62180;-51
2023/08/05 00:52:25;;;;;;;2.40;1.60;;;;;;;23.43;100.00;101220.31;104427;1256;62000;-49
2023/08/05 00:54:53;;;;;;;3.70;1.50;;;;;;;23.40;100.00;101217.34;104415;1262;73023;-50
2023/08/05 00:57:21;;;;;;;2.10;1.50;;;;;;;23.38;100.00;101219.17;104501;1257;66847;-49
2023/08/05 00:59:51;;;;;;;1.50;1.20;;;;;;;23.37;100.00;101224.07;104305;1257;72735;-50
2023/08/05 01:02:20;;;;;;;2.00;1.80;;;;;;;23.35;100.00;101218.49;104456;1266;62242;-51
2023/08/05 01:04:48;;;;;;;1.50;1.40;;;;;;;23.33;100.00;101218.81;104564;1258;60012;-50
2023/08/05 01:07:15;;;;;;;1.20;1.10;;;;;;;23.31;100.00;101212.41;104751;1257;71864;-51
2023/08/05 01:09:42;;;;;;;1.70;1.60;;;;;;;23.28;100.00;101213.91;104772;1257;66935;-52
2023/08/05 01:12:10;;;;;;;1.40;1.30;;;;;;;23.26;100.00;101212.59;104448;1257;73619;-51
2023/08/05 01:14:37;;;;;;;1.90;1.30;;;;;;;23.24;100.00;101217.00;104587;1257;61018;-51
2023/08/05 01:17:07;;;;;;;3.30;1.40;;;;;;;23.21;100.00;101212.84;105398;1257;59749;-52
2023/08/05 01:19:34;;;;;;;4.20;1.70;;;;;;;23.19;100.00;101215.23;105758;1257;72967;-49
2023/08/05 01:22:22;;;;;;;2.80;1.20;;;;;;;23.17;100.00;101214.11;104470;1263;66647;-49
2023/08/05 01:25:00;;;;;;;2.90;1.30;;;;;;;23.13;100.00;101224.29;104375;1264;73196;-51
2023/08/05 01:27:27;;;;;;;1.50;1.40;;;;;;;23.10;100.00;101219.23;104359;1258;60913;-52
2023/08/05 01:29:55;;;;;;;2.10;1.50;;;;;;;23.07;100.00;101210.84;104424;1262;60319;-50
2023/08/05 01:32:22;;;;;;;1.80;1.60;;;;;;;23.04;100.00;101205.80;104230;1262;73068;-48
2023/08/05 01:34:49;;;;;;;2.30;1.30;;;;;;;23.01;100.00;101203.23;105229;1264;67493;-49
2023/08/05 01:37:17;;;;;;;2.00;1.80;;;;;;;22.99;100.00;101203.58;104470;1256;72826;-48
2023/08/05 01:39:48;;;;;;;2.10;2.00;;;;;;;22.97;100.00;101207.36;104372;1257;60468;-48
2023/08/05 01:42:15;;;;;;;3.10;1.60;;;;;;;22.95;100.00;101202.05;104418;1257;59755;-50
2023/08/05 01:44:42;;;;;;;1.30;1.20;;;;;;;22.92;100.00;101201.92;104368;1258;74832;-48
2023/08/05 01:47:10;;;;;;;1.70;1.60;;;;;;;22.88;100.00;101201.13;104612;1256;67802;-50
2023/08/05 01:49:37;;;;;;;2.80;1.90;;;;;;;22.85;100.00;101205.06;104439;1260;72119;-50
2023/08/05 01:52:05;;;;;;;1.70;1.40;;;;;;;22.82;100.00;101203.64;104350;1264;60433;-48
2023/08/05 01:54:32;;;;;;;1.50;1.40;;;;;;;22.79;100.00;101206.64;104211;1263;59683;-51
2023/08/05 01:57:00;;;;;;;2.60;2.00;;;;;;;22.76;100.00;101201.20;104411;1257;73881;-49
2023/08/05 01:59:27;;;;;;;1.70;1.60;;;;;;;22.73;100.00;101200.60;104349;1257;68501;-50
2023/08/05 02:01:55;;;;;;;2.00;1.60;;;;;;;22.72;100.00;101199.46;104352;1257;74644;-51
2023/08/05 02:04:22;;;;;;;4.10;1.40;;;;;;;22.70;100.00;101203.27;104506;1257;60418;-51
2023/08/05 02:06:50;;;;;;;4.10;1.30;;;;;;;22.68;100.00;101201.38;104744;1257;59981;-48
2023/08/05 02:09:17;;;;;;;1.90;1.60;;;;;;;22.66;100.00;101198.04;105007;1261;73052;-50
2023/08/05 02:11:46;;;;;;;2.00;1.60;;;;;;;22.63;100.00;101195.45;104806;1257;67367;-48
2023/08/05 02:14:13;;;;;;;2.20;1.80;;;;;;;22.61;100.00;101196.56;104993;1263;73290;-49
2023/08/05 02:16:41;;;;;;;2.10;2.00;;;;;;;22.60;100.00;101201.63;104680;1256;61741;-49
2023/08/05 02:19:08;;;;;;;1.70;1.60;;;;;;;22.58;100.00;101204.33;104885;1256;59748;-48
2023/08/05 02:21:39;;;;;;;2.10;1.90;;;;;;;22.56;100.00;101203.56;105213;1257;73018;-52
2023/08/05 02:24:09;;;;;;;2.70;1.50;;;;;;;22.53;100.00;101201.39;104717;1257;67681;-48
2023/08/05 02:26:37;;;;;;;3.00;1.60;;;;;;;22.51;100.00;101205.23;105253;1258;72891;-50
2023/08/05 02:29:05;;;;;;;3.90;1.90;;;;;;;22.49;100.00;101213.05;104758;1260;61751;-49
2023/08/05 02:31:33;;;;;;;4.60;2.20;;;;;;;22.49;100.00;101219.29;104733;1257;60032;-48
2023/08/05 02:34:00;;;;;;;2.70;1.90;;;;;;;22.48;100.00;101223.94;104725;1260;73059;-49
2023/08/05 02:36:28;;;;;;;1.60;1.50;;;;;;;22.46;100.00;101220.97;104586;1257;65686;-50
2023/08/05 02:38:55;;;;;;;2.90;2.00;;;;;;;22.44;100.00;101224.98;104746;1261;72642;-48
2023/08/05 02:41:23;;;;;;;2.10;1.90;;;;;;;22.41;100.00;101219.88;104635;1256;62163;-49
2023/08/05 02:43:50;;;;;;;2.60;1.80;;;;;;;22.40;100.00;101218.67;104761;1257;60142;-49
2023/08/05 02:46:17;;;;;;;2.00;1.80;;;;;;;22.38;100.00;101216.64;104433;1256;73051;-50
2023/08/05 02:48:45;;;;;;;1.90;1.80;;;;;;;22.33;100.00;101216.26;104581;1264;65508;-48
2023/08/05 02:51:12;;;;;;;3.00;1.30;;;;;;;22.30;100.00;101214.48;104584;1259;71398;-49
2023/08/05 02:53:40;;;;;;;2.00;1.80;;;;;;;22.27;100.00;101215.06;104623;1258;59795;-50
2023/08/05 02:56:07;;;;;;;2.20;1.70;;;;;;;22.24;100.00;101210.48;104786;1255;61842;-50
2023/08/05 02:58:35;;;;;;;2.20;2.00;;;;;;;22.22;100.00;101214.13;104652;1257;73572;-49
2023/08/05 03:01:08;;;;;;;1.60;1.50;;;;;;;22.22;100.00;101218.93;104526;1256;68375;-50
2023/08/05 03:03:36;;;;;;;;;;;;;;;22.20;100.00;101221.05;108781;1255;72447;-49
2023/08/05 03:06:04;;;;;;;4.60;2.00;;;;;;;22.19;100.00;101219.16;108815;1257;60464;-48
2023/08/05 03:08:31;;;;;;;2.70;2.30;;;;;;;22.18;100.00;101217.36;108786;1255;59708;-47
2023/08/05 03:10:59;;;;;;;2.80;2.10;;;;;;;22.19;100.00;101215.68;108678;1257;73489;-48
2023/08/05 03:13:27;;;;;;;2.20;1.80;;;;;;;22.21;100.00;101218.06;108647;1256;68062;-47
2023/08/05 03:15:56;;;;;;;2.10;1.90;;;;;;;22.23;100.00;101216.11;108731;1256;71411;-49
2023/08/05 03:18:24;;;;;;;2.70;2.50;;;;;;;22.26;100.00;101216.98;108650;1261;62115;-49
2023/08/05 03:20:52;;;;;;;2.40;2.00;;;;;;;22.29;100.00;101226.10;108729;1255;59983;-51
2023/08/05 03:23:19;;;;;;;6.30;2.20;;;;;;;22.33;100.00;101229.83;108808;1256;75683;-48
2023/08/05 03:25:49;;;;;;;3.30;1.40;;;;;;;22.36;100.00;101234.13;108787;1256;66454;-51
2023/08/05 03:28:17;;;;;;;3.60;2.00;;;;;;;22.40;100.00;101232.94;108452;1257;72701;-48
2023/08/05 03:30:48;;;;;;;6.90;2.00;;;;;;;22.43;100.00;101235.08;108757;1256;63676;-48
2023/08/05 03:33:20;;;;;;;2.20;1.80;;;;;;;22.47;100.00;101236.63;108795;1256;60503;-51
2023/08/05 03:35:47;;;;;;;2.10;1.70;;;;;;;22.51;100.00;101241.23;108639;1261;73846;-49
2023/08/05 03:38:17;;;;;;;2.00;1.80;;;;;;;22.55;100.00;101244.98;105678;1257;66654;-51
2023/08/05 03:40:44;;;;;;;1.90;1.70;;;;;;;22.58;100.00;101242.35;104605;1254;72664;-50
2023/08/05 03:43:12;;;;;;;4.10;1.70;;;;;;;22.63;100.00;101244.73;104627;1258;61643;-48
2023/08/05 03:45:39;;;;;;;2.60;2.10;;;;;;;22.67;100.00;101240.96;104689;1261;60511;-47
2023/08/05 03:48:07;;;;;;;2.60;1.80;;;;;;;22.72;100.00;101248.44;105071;1258;73811;-47
2023/08/05 03:50:34;;;;;;;2.70;2.00;;;;;;;22.77;100.00;101250.64;104472;1255;66220;-48
2023/08/05 03:53:02;;;;;;;2.20;2.00;;;;;;;22.83;100.00;101257.36;104466;1260;74071;-49
2023/08/05 03:55:31;;;;;;;1.90;1.80;;;;;;;22.88;100.00;101262.83;105681;1254;60569;-49
2023/08/05 03:57:59;;;;;;;2.60;1.80;;;;;;;22.92;100.00;101270.17;104835;1260;60709;-48
2023/08/05 04:00:26;;;;;;;2.00;1.90;;;;;;;22.97;100.00;101271.42;104559;1256;73966;-48
2023/08/05 04:02:54;;;;;;;4.70;1.90;;;;;;;23.03;100.00;101275.77;104699;1257;67555;-49
2023/08/05 04:05:21;;;;;;;2.40;2.20;;;;;;;23.09;100.00;101276.60;104523;1257;71273;-48
2023/08/05 04:07:49;;;;;;;2.10;1.80;;;;;;;23.15;100.00;101282.02;104573;1255;60729;-48
2023/08/05 04:10:21;;;;;;;2.30;2.10;;;;;;;23.22;100.00;101292.27;104501;1260;60423;-47
2023/08/05 04:12:48;;;;;;;7.20;2.00;;;;;;;23.29;100.00;101305.11;104826;1257;71592;-49
2023/08/05 04:15:17;;;;;;;5.80;2.00;;;;;;;23.35;100.00;101315.55;104675;1260;67828;-49
2023/08/05 04:17:45;;;;;;;1.60;1.50;;;;;;;23.40;100.00;101330.56;106859;1256;71458;-48
2023/08/05 04:20:12;;;;;;;4.10;1.60;;;;;;;23.47;100.00;101339.58;104707;1257;60568;-49
2023/08/05 04:22:40;;;;;;;3.90;1.90;;;;;;;23.55;100.00;101345.44;104595;1256;60457;-50
2023/08/05 04:25:07;;;;;;;1.70;1.60;;;;;;;23.62;100.00;101356.01;104810;1254;73764;-48
2023/08/05 04:27:34;;;;;;;2.20;1.90;;;;;;;23.71;100.00;101366.52;104878;1260;68518;-48
2023/08/05 04:30:06;;;;;;;1.90;1.60;;;;;;;23.81;100.00;101388.85;104849;1261;73276;-50
2023/08/05 04:32:34;;;;;;;2.20;2.10;;;;;;;23.94;100.00;101404.52;108713;1256;60049;-49
2023/08/05 04:35:01;;;;;;;3.50;1.70;;;;;;;24.09;100.00;101414.30;108442;1255;59346;-51
2023/08/05 04:37:28;;;;;;;2.50;2.30;;;;;;;24.22;100.00;101427.66;104860;1255;72645;-48
2023/08/05 04:39:55;;;;;;;2.60;2.40;;;;;;;24.30;100.00;101442.38;104658;1260;66759;-52
2023/08/05 04:42:23;;;;;;;2.80;2.50;;;;;;;24.38;100.00;101454.80;104642;1258;74761;-49
2023/08/05 04:44:51;;;;;;;2.90;2.60;;;;;;;24.42;100.00;101470.00;104485;1260;60915;-51
2023/08/05 04:47:19;;;;;;;1.70;1.60;;;;;;;24.48;100.00;101493.23;104666;1256;62559;-52
2023/08/05 04:49:47;;;;;;;1.90;1.80;;;;;;;24.52;100.00;101503.52;104563;1260;73960;-50
2023/08/05 04:52:14;;;;;;;1.70;1.60;;;;;;;24.57;100.00;101517.47;104546;1260;66727;-50
2023/08/05 04:54:43;;;;;;;3.70;1.90;;;;;;;24.61;100.00;101526.50;104471;1256;74642;-54
2023/08/05 04:57:12;;;;;;;3.10;2.60;;;;;;;24.65;100.00;101535.55;104922;1259;60568;-50
2023/08/05 04:59:39;;;;;;;2.30;2.10;;;;;;;24.70;100.00;101546.92;104705;1256;60534;-50
2023/08/05 05:02:07;;;;;;;3.30;1.90;;;;;;;24.76;100.00;101553.05;104784;1256;74320;-51
2023/08/05 05:04:34;;;;;;;1.80;1.70;;;;;;;24.84;100.00;101568.37;104797;1255;66947;-52
2023/08/05 05:07:02;;;;;;;2.10;2.00;;;;;;;24.91;100.00;101584.52;104653;1260;74085;-49
2023/08/05 05:09:29;;;;;;;2.00;1.90;;;;;;;24.99;100.00;101597.58;104371;1255;60536;-51
2023/08/05 05:12:00;;;;;;;3.20;2.80;;;;;;;25.04;100.00;101614.17;104643;1256;60493;-52
2023/08/05 05:14:31;;;;;;;4.10;2.80;;;;;;;25.09;100.00;101630.52;104736;1255;72654;-51
2023/08/05 05:16:58;;;;;;;3.70;2.70;;;;;;;25.15;100.00;101649.50;104438;1259;66937;-53
2023/08/05 05:19:26;;;;;;;3.50;2.60;;;;;;;25.21;100.00;101666.45;104278;1261;70826;-49
2023/08/05 05:21:53;;;;;;;3.00;2.80;;;;;;;25.27;100.00;101677.23;104629;1260;61622;-50
2023/08/05 05:24:22;;;;;;;4.00;2.40;;;;;;;25.32;100.00;101692.08;104726;1257;60449;-48
2023/08/05 05:26:49;;;;;;;2.10;2.00;;;;;;;25.37;100.00;101702.45;104867;1255;73854;-50
2023/08/05 05:29:20;;;;;;;5.10;2.70;;;;;;;25.43;100.00;101713.76;104896;1255;67639;-49
2023/08/05 05:31:48;;;;;;;2.60;2.10;;;;;;;25.50;100.00;101733.42;104732;1260;73301;-51
2023/08/05 05:34:15;;;;;;;4.40;2.80;;;;;;;25.57;100.00;101737.10;104902;1257;61645;-49
2023/08/05 05:36:42;;;;;;;3.40;3.20;;;;;;;25.64;100.00;101749.80;104945;1260;60506;-50
2023/08/05 05:39:10;;;;;;;3.10;2.90;;;;;;;25.72;100.00;101763.86;104880;1257;72650;-51
2023/08/05 05:41:37;;;;;;;5.90;2.80;;;;;;;25.79;100.00;101776.14;104658;1258;65663;-51
2023/08/05 05:44:04;;;;;;;3.10;2.80;;;;;;;25.87;100.00;101794.44;104523;1255;75610;-50
2023/08/05 05:46:32;;;;;;;3.60;2.60;;;;;;;25.95;100.00;101813.70;105243;1254;60857;-50
2023/08/05 05:49:00;;;;;;;3.30;2.90;;;;;;;26.00;100.00;101827.77;104782;1261;60533;-50
2023/08/05 05:51:27;;;;;;;4.10;3.70;;;;;;;26.06;100.00;101836.30;104910;1260;73854;-49
2023/08/05 05:53:57;;;;;;;5.40;3.20;;;;;;;26.13;100.00;101854.19;104967;1255;67579;-49
2023/08/05 05:56:25;;;;;;;2.00;1.90;;;;;;;26.19;100.00;101875.73;106956;1256;72654;-49
2023/08/05 05:58:52;;;;;;;2.70;2.30;;;;;;;26.25;100.00;101888.14;104363;1260;61706;-50
2023/08/05 06:01:20;;;;;;;2.90;2.70;;;;;;;26.32;100.00;101905.29;104873;1256;60544;-49
2023/08/05 06:03:48;;;;;;;2.80;2.60;;;;;;;26.39;100.00;101922.91;104726;1255;73947;-50
2023/08/05 06:06:15;;;;;;;3.10;2.20;;;;;;;26.49;100.00;101943.34;104972;1260;66786;-49
2023/08/05 06:08:43;;;;;;;4.80;2.60;;;;;;;26.57;100.00;101961.05;104807;1260;72785;-52
2023/08/05 06:11:10;;;;;;;4.10;2.50;;;;;;;26.66;100.00;101981.30;104484;1255;61018;-50
2023/08/05 06:13:37;;;;;;;3.70;2.30;;;;;;;26.76;100.00;102005.77;104826;1257;60399;-50
2023/08/05 06:16:05;;;;;;;2.20;2.10;;;;;;;26.84;100.00;102032.73;104773;1260;73860;-52
2023/08/05 06:18:32;;;;;;;2.80;2.60;;;;;;;26.91;100.00;102054.63;104859;1256;67724;-50
2023/08/05 06:21:00;;;;;;;2.10;1.80;;;;;;;26.97;100.00;102068.35;104653;1256;72731;-49
2023/08/05 06:23:27;;;;;;;3.00;2.50;;;;;;;27.02;100.00;102090.58;104715;1255;60559;-51
2023/08/05 06:25:54;;;;;;;2.80;2.50;;;;;;;27.08;100.00;102107.94;104595;1260;60436;-50
2023/08/05 06:28:22;;;;;;;7.30;2.50;;;;;;;27.15;100.00;102125.70;104873;1260;73976;-50
2023/08/05 06:30:49;;;;;;;2.40;2.20;;;;;;;27.20;100.00;102146.14;104777;1259;66861;-53
2023/08/05 06:33:16;;;;;;;3.00;2.30;;;;;;;27.24;100.00;102168.63;108961;1255;73257;-50
2023/08/05 06:35:44;;;;;;;2.10;2.00;;;;;;;27.28;100.00;102184.48;108892;1255;60711;-50
2023/08/05 06:38:11;;;;;;;3.80;2.00;;;;;;;27.32;100.00;102202.20;108974;1255;58286;-52
2023/08/05 06:40:44;;;;;;;2.20;2.00;;;;;;;27.37;100.00;102221.17;106681;1255;72660;-50
2023/08/05 06:43:11;;;;;;;2.10;2.00;;;;;;;27.43;100.00;102239.16;104898;1255;67250;-51
2023/08/05 06:45:38;;;;;;;4.70;2.10;;;;;;;27.49;100.00;102254.70;104874;1260;72661;-52
2023/08/05 06:48:06;;;;;;;2.90;2.50;;;;;;;27.57;100.00;102272.95;104805;1260;60621;-50
2023/08/05 06:50:34;;;;;;;4.00;2.00;;;;;;;27.64;100.00;102295.92;104984;1260;60565;-49
2023/08/05 06:53:01;;;;;;;2.30;2.00;;;;;;;27.72;100.00;102316.35;104578;1256;74446;-53
2023/08/05 06:55:29;;;;;;;4.40;1.90;;;;;;;27.79;100.00;102340.65;104545;1255;66291;-51
2023/08/05 06:57:56;;;;;;;2.60;1.70;;;;;;;27.86;100.00;102360.97;104707;1255;72692;-51
2023/08/05 07:00:23;;;;;;;2.20;2.00;;;;;;;27.93;100.00;102384.42;104614;1256;60440;-51
2023/08/05 07:02:51;;;;;;;3.30;2.50;;;;;;;28.00;100.00;102402.08;105617;1255;60450;-51
2023/08/05 07:05:18;;;;;;;4.10;1.90;;;;;;;28.07;100.00;102424.02;104769;1255;73799;-49
2023/08/05 07:07:46;;;;;;;4.10;1.70;;;;;;;28.13;100.00;102443.49;104712;1260;67384;-50
2023/08/05 07:10:15;;;;;;;4.80;2.10;;;;;;;28.19;100.00;102470.95;105005;1256;71401;-49
2023/08/05 07:12:43;;;;;;;2.20;1.60;;;;;;;28.24;100.00;102491.02;104283;1259;60984;-51
2023/08/05 07:15:10;;;;;;;2.50;1.30;;;;;;;28.30;100.00;102508.67;104611;1256;60554;-51
2023/08/05 07:17:38;;;;;;;1.70;1.40;;;;;;;28.36;100.00;102528.66;104703;1258;73878;-50
2023/08/05 07:20:06;;;;;;;1.30;1.10;;;;;;;28.42;100.00;102550.73;105799;1255;65646;-51
2023/08/05 07:22:34;;;;;;;1.60;1.40;;;;;;;28.48;100.00;102571.44;105519;1260;72428;-51
2023/08/05 07:25:02;;;;;;;2.40;1.50;;;;;;;28.54;100.00;102593.66;105043;1256;60832;-51
2023/08/05 07:27:30;;;;;;;1.90;1.40;;;;;;;28.60;100.00;102604.50;104744;1255;60544;-51
2023/08/05 07:29:57;;;;;;;2.00;1.30;;;;;;;28.66;100.00;102623.60;104651;1255;72636;-50
2023/08/05 07:32:24;;;;;;;2.50;1.50;;;;;;;28.71;100.00;102642.75;105229;1255;66905;-53
2023/08/05 07:34:53;;;;;;;2.40;1.70;;;;;;;28.76;100.00;102661.77;104788;1256;71211;-52
2023/08/05 07:37:21;;;;;;;2.40;1.10;;;;;;;28.82;100.00;102682.21;105191;1255;60547;-52
2023/08/05 07:39:49;;;;;;;1.60;1.50;;;;;;;28.87;100.00;102699.73;105003;1261;60580;-50
2023/08/05 07:42:19;;;;;;;4.50;1.40;;;;;;;28.93;100.00;102715.52;104661;1260;73221;-51
2023/08/05 07:44:47;;;;;;;6.30;2.30;;;;;;;28.99;100.00;102745.36;105062;1256;68524;-49
2023/08/05 07:47:14;;;;;;;1.40;1.20;;;;;;;29.04;100.00;102764.19;105081;1255;73136;-52
2023/08/05 07:49:42;;;;;;;1.40;1.30;;;;;;;29.09;100.00;102784.68;104695;1255;60362;-52
2023/08/05 07:52:10;;;;;;;3.80;1.30;;;;;;;29.13;100.00;102800.10;104669;1255;60601;-53
2023/08/05 07:54:37;;;;;;;2.60;1.20;;;;;;;29.15;100.00;102816.17;104822;1256;73670;-53
2023/08/05 07:57:05;;;;;;;1.70;1.40;;;;;;;29.20;100.00;102834.28;104979;1256;66840;-51
2023/08/05 07:59:34;;;;;;;3.80;1.90;;;;;;;29.26;100.00;102853.75;105837;1260;71875;-52
2023/08/05 08:02:01;;;;;;;2.00;1.60;;;;;;;29.33;100.00;102877.11;104868;1256;61009;-51
2023/08/05 08:04:30;;;;;;;1.40;1.30;;;;;;;29.39;100.00;102889.08;104859;1257;60379;-51
2023/08/05 08:06:57;;;;;;;2.60;1.00;;;;;;;29.44;100.00;102903.85;104599;1260;74292;-53
2023/08/05 08:09:25;;;;;;;2.30;1.50;;;;;;;29.48;100.00;102913.13;104666;1261;65951;-51
2023/08/05 08:11:52;;;;;;;3.40;1.40;;;;;;;29.52;100.00;102928.33;104808;1255;71848;-52
2023/08/05 08:14:20;;;;;;;1.40;1.30;;;;;;;29.56;100.00;102942.66;104329;1256;61564;-54
2023/08/05 08:16:47;;;;;;;3.20;1.40;;;;;;;29.60;100.00;102954.52;104720;1260;61723;-51
2023/08/05 08:19:16;;;;;;;1.50;1.40;;;;;;;29.64;100.00;102964.73;104699;1260;73893;-51
2023/08/05 08:21:45;;;;;;;2.40;1.20;;;;;;;29.69;100.00;102977.32;104806;1259;67361;-52
2023/08/05 08:24:13;;;;;;;1.50;1.30;;;;;;;29.75;100.00;102990.58;104918;1260;73483;-53
2023/08/05 08:26:40;;;;;;;1.50;1.40;;;;;;;29.81;100.00;102996.01;104622;1260;60745;-50
2023/08/05 08:29:07;;;;;;;3.50;1.40;;;;;;;29.86;100.00;103009.45;104623;1256;60543;-51
2023/08/05 08:31:34;;;;;;;4.00;1.50;;;;;;;29.91;100.00;103023.16;104736;1255;73773;-49
2023/08/05 08:34:02;;;;;;;3.50;1.10;;;;;;;29.95;100.00;103033.59;107535;1256;65974;-51
2023/08/05 08:36:29;;;;;;;1.70;1.30;;;;;;;29.99;100.00;103046.25;104793;1258;71876;-49
2023/08/05 08:38:57;;;;;;;3.20;2.10;;;;;;;30.02;100.00;103057.69;104770;1260;60797;-49
2023/08/05 08:41:25;;;;;;;2.80;1.30;;;;;;;30.05;100.00;103059.11;104898;1256;60703;-52
2023/08/05 08:43:54;;;;;;;2.80;1.20;;;;;;;30.07;100.00;103065.05;105016;1256;74265;-50
2023/08/05 08:46:21;;;;;;;1.80;1.30;;;;;;;30.10;100.00;103083.70;104671;1256;66695;-51
2023/08/05 08:48:49;;;;;;;3.30;1.20;;;;;;;30.13;100.00;103084.41;104668;1256;72679;-51
2023/08/05 08:51:18;;;;;;;3.20;1.20;;;;;;;30.17;100.00;103093.77;104675;1256;60568;-53
2023/08/05 08:53:45;;;;;;;4.40;1.10;;;;;;;30.20;100.00;103098.27;104633;1255;60620;-52
2023/08/05 08:56:13;;;;;;;3.20;1.30;;;;;;;30.24;100.00;103098.36;104651;1256;72597;-51
2023/08/05 08:58:40;;;;;;;1.10;1.00;;;;;;;30.29;100.00;103101.46;104887;1260;65510;-52
2023/08/05 09:01:08;;;;;;;2.50;0.90;;;;;;;30.35;100.00;103114.69;104839;1260;72436;-52
2023/08/05 09:03:35;;;;;;;1.30;1.00;;;;;;;30.39;100.00;103119.18;108773;1255;58796;-53
2023/08/05 09:06:02;;;;;;;1.30;1.20;;;;;;;30.41;100.00;103122.77;108838;1255;58729;-52
2023/08/05 09:08:31;;;;;;;2.50;1.00;;;;;;;30.44;100.00;103125.29;108796;1255;73956;-53
2023/08/05 09:11:00;;;;;;;1.40;1.10;;;;;;;30.48;100.00;103132.54;108867;1256;67706;-52
2023/08/05 09:13:27;;;;;;;4.90;1.10;;;;;;;30.53;100.00;103141.85;108845;1255;73133;-52
2023/08/05 09:15:55;;;;;;;1.10;1.00;;;;;;;30.58;100.00;103149.42;108933;1255;60092;-51
2023/08/05 09:18:22;;;;;;;4.00;1.00;;;;;;;30.61;100.00;103157.48;108929;1260;60013;-50
2023/08/05 09:20:52;;;;;;;1.70;1.00;;;;;;;30.64;100.00;103153.30;108901;1255;74216;-52
2023/08/05 09:23:20;;;;;;;2.70;1.00;;;;;;;30.66;100.00;103159.08;108883;1255;67420;-54
2023/08/05 09:25:48;;;;;;;3.00;1.50;;;;;;;30.69;100.00;103151.27;108888;1255;71420;-53
2023/08/05 09:28:30;;;;;;;3.10;0.90;;;;;;;30.72;100.00;103149.73;109006;1255;59404;-52
2023/08/05 09:31:13;;;;;;;1.10;1.00;;;;;;;30.74;100.00;103178.44;108856;1255;62768;-53
2023/08/05 09:33:42;;;;;;;5.50;1.00;;;;;;;30.77;100.00;103184.52;106781;1255;72676;-51
2023/08/05 09:36:11;;;;;;;2.50;0.90;;;;;;;30.80;100.00;103156.65;105960;1260;65725;-49
2023/08/05 09:38:39;;;;;;;2.30;1.00;;;;;;;30.81;100.00;103154.50;105158;1256;73154;-50
2023/08/05 09:41:07;;;;;;;2.30;0.90;;;;;;;30.83;100.00;103144.78;104848;1261;60786;-51
2023/08/05 09:43:39;;;;;;;1.40;0.90;;;;;;;30.85;100.00;103140.87;104555;1257;60465;-51
2023/08/05 09:46:11;;;;;;;2.60;0.90;;;;;;;30.87;100.00;103137.81;104719;1256;72676;-50
2023/08/05 09:48:41;;;;;;;5.10;0.80;;;;;;;30.87;100.00;103130.57;104856;1255;66890;-50
2023/08/05 09:51:16;;;;;;;0.90;0.90;;;;;;;30.88;100.00;103116.37;106840;1257;72595;-52
2023/08/05 09:53:46;;;;;;;3.20;1.00;;;;;;;30.90;100.00;103119.73;105311;1255;60477;-52
2023/08/05 09:56:15;;;;;;;0.70;0.70;;;;;;;30.91;100.00;103105.52;105182;1256;62145;-52
2023/08/05 09:58:43;;;;;;;1.10;0.90;;;;;;;30.93;100.00;103093.13;104847;1255;72632;-50
2023/08/05 10:01:11;;;;;;;2.60;1.40;;;;;;;30.94;100.00;103078.42;104761;1256;65525;-51
2023/08/05 10:03:38;;;;;;;1.80;0.90;;;;;;;30.96;100.00;103070.68;105907;1255;73101;-51
2023/08/05 10:06:07;;;;;;;1.30;0.80;;;;;;;30.98;100.00;103063.98;104706;1257;60521;-51
2023/08/05 10:08:36;;;;;;;2.50;0.90;;;;;;;30.99;100.00;103058.35;104394;1255;60566;-53
2023/08/05 10:11:04;;;;;;;2.70;1.10;;;;;;;31.00;100.00;103050.42;108791;1255;73807;-52
2023/08/05 10:13:39;;;;;;;1.90;0.80;;;;;;;31.03;100.00;103042.96;105071;1256;65555;-50
2023/08/05 10:16:07;;;;;;;1.70;0.90;;;;;;;31.04;100.00;103046.41;104767;1260;72753;-51
2023/08/05 10:18:35;;;;;;;1.00;0.90;;;;;;;31.04;100.00;103019.75;108588;1255;61043;-51
2023/08/05 10:21:05;;;;;;;1.20;1.10;;;;;;;31.05;100.00;103010.17;106543;1262;60532;-52
2023/08/05 10:23:35;;;;;;;1.90;0.90;;;;;;;31.06;100.00;103006.36;104862;1256;73843;-49
2023/08/05 10:26:04;;;;;;;2.50;1.10;;;;;;;31.09;100.00;102991.30;104808;1256;67263;-50
2023/08/05 10:28:34;;;;;;;1.30;1.20;;;;;;;31.12;100.00;102983.48;104864;1258;73197;-50
2023/08/05 10:31:03;;;;;;;2.70;1.00;;;;;;;31.12;100.00;102975.63;104622;1262;60430;-53
2023/08/05 10:33:30;;;;;;;8.30;1.00;;;;;;;31.13;100.00;102960.52;105403;1255;60882;-50
2023/08/05 10:36:01;;;;;;;1.30;0.90;;;;;;;31.16;100.00;102953.41;104694;1256;72939;-52
2023/08/05 10:38:31;;;;;;;1.70;1.00;;;;;;;31.17;100.00;102944.09;105325;1258;67995;-53
2023/08/05 10:41:03;;;;;;;2.80;1.00;;;;;;;31.17;100.00;102937.96;105635;1256;73026;-51
2023/08/05 10:43:30;;;;;;;1.40;1.30;;;;;;;31.16;100.00;102920.96;104767;1256;60625;-50
2023/08/05 10:46:04;;;;;;;4.40;0.90;;;;;;;31.14;100.00;102904.04;104527;1253;60610;-52
2023/08/05 10:48:42;;;;;;;1.60;1.20;;;;;;;31.14;100.00;102904.02;108910;1255;72732;-51
2023/08/05 10:51:25;;;;;;;0.80;0.70;;;;;;;31.14;100.00;102890.55;105777;1260;68312;-54
2023/08/05 10:53:55;;;;;;;4.60;0.90;;;;;;;31.14;100.00;102885.91;104373;1255;72703;-53
2023/08/05 10:56:34;;;;;;;1.10;0.90;;;;;;;31.14;100.00;102854.31;104781;1255;60456;-50
2023/08/05 10:59:04;;;;;;;1.70;1.30;;;;;;;31.16;100.00;102848.98;105052;1258;60397;-51
2023/08/05 11:01:57;;;;;;;5.70;1.70;;;;;;;31.17;100.00;102822.01;105247;1260;73864;-51
2023/08/05 11:04:29;;;;;;;1.70;1.30;;;;;;;31.16;100.00;102837.09;105120;1259;65476;-51
2023/08/05 11:06:59;;;;;;;1.90;1.40;;;;;;;31.17;100.00;102793.60;104638;1255;71458;-52
2023/08/05 11:09:27;;;;;;;1.00;0.90;;;;;;;31.19;100.00;102784.20;104896;1256;60455;-53
2023/08/05 11:11:54;;;;;;;2.30;1.00;;;;;;;31.20;100.00;102767.92;104720;1255;61489;-51
2023/08/05 11:14:22;;;;;;;1.30;1.00;;;;;;;31.22;100.00;102756.43;104839;1260;73922;-53